sensor_id;sensor_type;location;lat;lon;timestamp;temperature;humidity
26262;DHT22;13988;52.446;13.280;2023-04-03T00:01:11;1.40;99.90
26262;DHT22;13988;52.446;13.280;2023-04-03T00:03:37;1.50;99.90
26262;DHT22;13988;52.446;13.280;2023-04-03T00:06:03;1.40;99.90
26262;DHT22;13988;52.446;13.280;2023-04-03T00:08:30;1.40;99.90
26262;DHT22;13988;52.446;13.280;2023-04-03T00:10:58;1.40;99.90
26262;DHT22;13988;52.446;13.280;2023-04-03T00:13:24;1.50;99.90
26262;DHT22;13988;52.446;13.280;2023-04-03T00:15:50;1.40;99.90
26262;DHT22;13988;52.446;13.280;2023-04-03T00:18:16;1.40;99.90
26262;DHT22;13988;52.446;13.280;2023-04-03T00:20:42;1.40;99.90
26262;DHT22;13988;52.446;13.280;2023-04-03T00:23:07;1.30;99.90
26262;DHT22;13988;52.446;13.280;2023-04-03T00:25:33;1.30;99.90
26262;DHT22;13988;52.446;13.280;2023-04-03T00:28:00;1.30;99.90
26262;DHT22;13988;52.446;13.280;2023-04-03T00:30:25;1.30;99.90
26262;DHT22;13988;52.446;13.280;2023-04-03T00:32:52;1.30;99.90
26262;DHT22;13988;52.446;13.280;2023-04-03T00:35:19;1.30;99.90
26262;DHT22;13988;52.446;13.280;2023-04-03T00:37:45;1.30;99.90
26262;DHT22;13988;52.446;13.280;2023-04-03T00:40:13;1.20;99.90
26262;DHT22;13988;52.446;13.280;2023-04-03T00:42:41;1.40;99.90
26262;DHT22;13988;52.446;13.280;2023-04-03T00:45:27;1.30;99.90
26262;DHT22;13988;52.446;13.280;2023-04-03T00:47:53;1.30;99.90
26262;DHT22;13988;52.446;13.280;2023-04-03T00:50:19;1.30;99.90
26262;DHT22;13988;52.446;13.280;2023-04-03T00:52:45;1.30;99.90
26262;DHT22;13988;52.446;13.280;2023-04-03T00:55:14;1.20;99.90
26262;DHT22;13988;52.446;13.280;2023-04-03T00:57:41;1.20;99.90
26262;DHT22;13988;52.446;13.280;2023-04-03T01:00:11;1.10;99.90
26262;DHT22;13988;52.446;13.280;2023-04-03T01:02:38;1.10;99.90
26262;DHT22;13988;52.446;13.280;2023-04-03T01:05:06;1.20;99.90
26262;DHT22;13988;52.446;13.280;2023-04-03T01:07:33;1.10;99.90
26262;DHT22;13988;52.446;13.280;2023-04-03T01:10:05;1.20;99.90
26262;DHT22;13988;52.446;13.280;2023-04-03T01:12:37;1.00;99.90
26262;DHT22;13988;52.446;13.280;2023-04-03T01:15:10;1.00;99.90
26262;DHT22;13988;52.446;13.280;2023-04-03T01:17:43;1.00;99.90
26262;DHT22;13988;52.446;13.280;2023-04-03T01:23:05;0.90;99.90
26262;DHT22;13988;52.446;13.280;2023-04-03T01:25:32;0.90;99.90
26262;DHT22;13988;52.446;13.280;2023-04-03T01:27:58;0.90;99.90
26262;DHT22;13988;52.446;13.280;2023-04-03T01:30:28;1.20;99.90
26262;DHT22;13988;52.446;13.280;2023-04-03T01:32:56;0.90;99.90
26262;DHT22;13988;52.446;13.280;2023-04-03T01:35:22;0.80;99.90
26262;DHT22;13988;52.446;13.280;2023-04-03T01:37:48;0.80;99.90
26262;DHT22;13988;52.446;13.280;2023-04-03T01:40:13;0.90;99.90
26262;DHT22;13988;52.446;13.280;2023-04-03T01:42:39;0.80;99.90
26262;DHT22;13988;52.446;13.280;2023-04-03T01:45:05;0.70;99.90
26262;DHT22;13988;52.446;13.280;2023-04-03T01:47:31;0.80;99.90
26262;DHT22;13988;52.446;13.280;2023-04-03T01:49:56;0.70;99.90
26262;DHT22;13988;52.446;13.280;2023-04-03T01:52:22;0.60;99.90
26262;DHT22;13988;52.446;13.280;2023-04-03T01:54:47;0.80;99.90
26262;DHT22;13988;52.446;13.280;2023-04-03T01:57:13;0.80;99.90
26262;DHT22;13988;52.446;13.280;2023-04-03T01:59:40;0.60;99.90
26262;DHT22;13988;52.446;13.280;2023-04-03T02:02:06;0.60;99.90
26262;DHT22;13988;52.446;13.280;2023-04-03T02:04:32;0.60;99.90
26262;DHT22;13988;52.446;13.280;2023-04-03T02:06:58;0.70;99.90
26262;DHT22;13988;52.446;13.280;2023-04-03T02:09:24;0.70;99.90
26262;DHT22;13988;52.446;13.280;2023-04-03T02:11:49;0.60;99.90
26262;DHT22;13988;52.446;13.280;2023-04-03T02:14:15;0.60;99.90
26262;DHT22;13988;52.446;13.280;2023-04-03T02:16:41;0.70;99.90
26262;DHT22;13988;52.446;13.280;2023-04-03T02:19:07;0.70;99.90
26262;DHT22;13988;52.446;13.280;2023-04-03T02:21:32;0.60;99.90
26262;DHT22;13988;52.446;13.280;2023-04-03T02:23:58;0.50;99.90
26262;DHT22;13988;52.446;13.280;2023-04-03T02:26:23;0.50;99.90
26262;DHT22;13988;52.446;13.280;2023-04-03T02:28:50;0.50;99.90
26262;DHT22;13988;52.446;13.280;2023-04-03T02:31:15;0.40;99.90
26262;DHT22;13988;52.446;13.280;2023-04-03T02:33:41;0.30;99.90
26262;DHT22;13988;52.446;13.280;2023-04-03T02:36:08;0.30;99.90
26262;DHT22;13988;52.446;13.280;2023-04-03T02:38:34;0.40;99.90
26262;DHT22;13988;52.446;13.280;2023-04-03T02:41:05;0.40;99.90
26262;DHT22;13988;52.446;13.280;2023-04-03T02:43:31;0.30;99.90
26262;DHT22;13988;52.446;13.280;2023-04-03T02:45:57;0.40;99.90
26262;DHT22;13988;52.446;13.280;2023-04-03T02:48:23;0.40;99.90
26262;DHT22;13988;52.446;13.280;2023-04-03T02:50:49;0.40;99.90
26262;DHT22;13988;52.446;13.280;2023-04-03T02:53:15;0.40;99.90
26262;DHT22;13988;52.446;13.280;2023-04-03T02:55:41;0.40;99.90
26262;DHT22;13988;52.446;13.280;2023-04-03T02:58:07;0.30;99.90
26262;DHT22;13988;52.446;13.280;2023-04-03T03:00:33;0.40;99.90
26262;DHT22;13988;52.446;13.280;2023-04-03T03:02:58;0.30;99.90
26262;DHT22;13988;52.446;13.280;2023-04-03T03:05:25;0.20;99.90
26262;DHT22;13988;52.446;13.280;2023-04-03T03:07:51;0.20;99.90
26262;DHT22;13988;52.446;13.280;2023-04-03T03:10:16;0.10;99.90
26262;DHT22;13988;52.446;13.280;2023-04-03T03:12:42;0.00;99.90
26262;DHT22;13988;52.446;13.280;2023-04-03T03:15:08;0.00;99.90
26262;DHT22;13988;52.446;13.280;2023-04-03T03:17:34;0.10;99.90
26262;DHT22;13988;52.446;13.280;2023-04-03T03:20:01;0.10;99.90
26262;DHT22;13988;52.446;13.280;2023-04-03T03:22:28;0.00;99.90
26262;DHT22;13988;52.446;13.280;2023-04-03T03:24:53;0.00;99.90
26262;DHT22;13988;52.446;13.280;2023-04-03T03:27:20;-0.10;99.90
26262;DHT22;13988;52.446;13.280;2023-04-03T03:29:46;-0.10;99.90
26262;DHT22;13988;52.446;13.280;2023-04-03T03:32:12;-0.10;99.90
26262;DHT22;13988;52.446;13.280;2023-04-03T03:34:37;-0.10;99.90
26262;DHT22;13988;52.446;13.280;2023-04-03T03:37:03;-0.20;99.90
26262;DHT22;13988;52.446;13.280;2023-04-03T03:39:28;-0.20;99.90
26262;DHT22;13988;52.446;13.280;2023-04-03T03:41:54;-0.20;99.90
26262;DHT22;13988;52.446;13.280;2023-04-03T03:44:20;-0.30;99.90
26262;DHT22;13988;52.446;13.280;2023-04-03T03:46:46;-0.30;99.90
26262;DHT22;13988;52.446;13.280;2023-04-03T03:49:12;-0.30;99.90
26262;DHT22;13988;52.446;13.280;2023-04-03T03:51:40;-0.40;99.90
26262;DHT22;13988;52.446;13.280;2023-04-03T03:54:06;-0.40;99.90
26262;DHT22;13988;52.446;13.280;2023-04-03T03:56:33;-0.40;99.90
26262;DHT22;13988;52.446;13.280;2023-04-03T03:58:59;-0.40;99.90
26262;DHT22;13988;52.446;13.280;2023-04-03T04:01:25;-0.40;99.90
26262;DHT22;13988;52.446;13.280;2023-04-03T04:03:51;-0.40;99.90
26262;DHT22;13988;52.446;13.280;2023-04-03T04:06:16;-0.40;99.90
26262;DHT22;13988;52.446;13.280;2023-04-03T04:08:42;-0.30;99.90
26262;DHT22;13988;52.446;13.280;2023-04-03T04:11:08;-0.50;99.90
26262;DHT22;13988;52.446;13.280;2023-04-03T04:13:34;-0.50;99.90
26262;DHT22;13988;52.446;13.280;2023-04-03T04:16:00;-0.50;99.90
26262;DHT22;13988;52.446;13.280;2023-04-03T04:18:26;-0.50;99.90
26262;DHT22;13988;52.446;13.280;2023-04-03T04:20:51;-0.50;99.90
26262;DHT22;13988;52.446;13.280;2023-04-03T04:23:18;-0.50;99.90
26262;DHT22;13988;52.446;13.280;2023-04-03T04:25:45;-0.40;99.90
26262;DHT22;13988;52.446;13.280;2023-04-03T04:28:11;-0.50;99.90
26262;DHT22;13988;52.446;13.280;2023-04-03T04:30:37;-0.50;99.90
26262;DHT22;13988;52.446;13.280;2023-04-03T04:33:02;-0.50;99.90
26262;DHT22;13988;52.446;13.280;2023-04-03T04:35:28;-0.60;99.90
26262;DHT22;13988;52.446;13.280;2023-04-03T04:37:54;-0.50;99.90
26262;DHT22;13988;52.446;13.280;2023-04-03T04:40:20;-0.50;99.90
26262;DHT22;13988;52.446;13.280;2023-04-03T04:42:46;-0.50;99.90
26262;DHT22;13988;52.446;13.280;2023-04-03T04:45:11;-0.50;99.90
26262;DHT22;13988;52.446;13.280;2023-04-03T04:47:37;-0.50;99.90
26262;DHT22;13988;52.446;13.280;2023-04-03T04:50:03;-0.50;99.90
26262;DHT22;13988;52.446;13.280;2023-04-03T04:52:29;-0.40;99.90
26262;DHT22;13988;52.446;13.280;2023-04-03T04:54:54;-0.40;99.90
26262;DHT22;13988;52.446;13.280;2023-04-03T04:57:20;-0.40;99.90
26262;DHT22;13988;52.446;13.280;2023-04-03T04:59:46;-0.40;99.90
26262;DHT22;13988;52.446;13.280;2023-04-03T05:02:11;-0.40;99.90
26262;DHT22;13988;52.446;13.280;2023-04-03T05:04:37;-0.40;99.90
26262;DHT22;13988;52.446;13.280;2023-04-03T05:07:03;-0.30;99.90
26262;DHT22;13988;52.446;13.280;2023-04-03T05:09:28;-0.30;99.90
26262;DHT22;13988;52.446;13.280;2023-04-03T05:11:54;-0.30;99.90
26262;DHT22;13988;52.446;13.280;2023-04-03T05:14:20;-0.30;99.90
26262;DHT22;13988;52.446;13.280;2023-04-03T05:16:45;-0.20;99.90
26262;DHT22;13988;52.446;13.280;2023-04-03T05:19:11;-0.10;99.90
26262;DHT22;13988;52.446;13.280;2023-04-03T05:21:37;0.00;99.90
26262;DHT22;13988;52.446;13.280;2023-04-03T05:24:03;0.00;99.90
26262;DHT22;13988;52.446;13.280;2023-04-03T05:26:30;0.00;99.90
26262;DHT22;13988;52.446;13.280;2023-04-03T05:28:55;0.10;99.90
26262;DHT22;13988;52.446;13.280;2023-04-03T05:31:21;0.10;99.90
26262;DHT22;13988;52.446;13.280;2023-04-03T05:33:47;0.50;99.90
26262;DHT22;13988;52.446;13.280;2023-04-03T05:36:13;0.20;99.90
26262;DHT22;13988;52.446;13.280;2023-04-03T05:38:39;0.30;99.90
26262;DHT22;13988;52.446;13.280;2023-04-03T05:41:05;0.30;99.90
26262;DHT22;13988;52.446;13.280;2023-04-03T05:43:31;0.40;99.90
26262;DHT22;13988;52.446;13.280;2023-04-03T05:45:56;0.50;99.90
26262;DHT22;13988;52.446;13.280;2023-04-03T05:48:22;0.50;99.90
26262;DHT22;13988;52.446;13.280;2023-04-03T05:50:48;0.60;99.90
26262;DHT22;13988;52.446;13.280;2023-04-03T05:53:21;0.60;99.90
26262;DHT22;13988;52.446;13.280;2023-04-03T05:55:47;0.70;99.90
26262;DHT22;13988;52.446;13.280;2023-04-03T05:58:13;0.90;99.90
26262;DHT22;13988;52.446;13.280;2023-04-03T06:00:39;1.10;99.90
26262;DHT22;13988;52.446;13.280;2023-04-03T06:03:05;1.60;99.90
26262;DHT22;13988;52.446;13.280;2023-04-03T06:05:31;1.90;99.90
26262;DHT22;13988;52.446;13.280;2023-04-03T06:07:57;3.00;99.90
26262;DHT22;13988;52.446;13.280;2023-04-03T06:10:23;3.00;99.90
26262;DHT22;13988;52.446;13.280;2023-04-03T06:12:49;3.50;99.90
26262;DHT22;13988;52.446;13.280;2023-04-03T06:15:15;3.80;99.90
26262;DHT22;13988;52.446;13.280;2023-04-03T06:17:42;3.80;99.90
26262;DHT22;13988;52.446;13.280;2023-04-03T06:20:08;2.40;99.90
26262;DHT22;13988;52.446;13.280;2023-04-03T06:22:34;1.90;99.90
26262;DHT22;13988;52.446;13.280;2023-04-03T06:25:01;2.00;99.90
26262;DHT22;13988;52.446;13.280;2023-04-03T06:27:26;2.20;99.90
26262;DHT22;13988;52.446;13.280;2023-04-03T06:29:52;2.20;99.90
26262;DHT22;13988;52.446;13.280;2023-04-03T06:32:18;2.10;99.90
26262;DHT22;13988;52.446;13.280;2023-04-03T06:34:43;2.00;99.90
26262;DHT22;13988;52.446;13.280;2023-04-03T06:37:17;2.40;99.90
26262;DHT22;13988;52.446;13.280;2023-04-03T06:39:43;2.30;99.90
26262;DHT22;13988;52.446;13.280;2023-04-03T06:42:10;2.40;99.90
26262;DHT22;13988;52.446;13.280;2023-04-03T06:44:36;2.30;99.90
26262;DHT22;13988;52.446;13.280;2023-04-03T06:47:02;2.50;99.90
26262;DHT22;13988;52.446;13.280;2023-04-03T06:49:28;2.50;99.90
26262;DHT22;13988;52.446;13.280;2023-04-03T06:51:54;2.50;99.90
26262;DHT22;13988;52.446;13.280;2023-04-03T06:54:20;2.70;99.90
26262;DHT22;13988;52.446;13.280;2023-04-03T06:56:46;2.80;99.90
26262;DHT22;13988;52.446;13.280;2023-04-03T06:59:12;2.90;99.90
26262;DHT22;13988;52.446;13.280;2023-04-03T07:01:39;2.80;99.90
26262;DHT22;13988;52.446;13.280;2023-04-03T07:04:04;2.80;99.90
26262;DHT22;13988;52.446;13.280;2023-04-03T07:06:31;2.70;99.90
26262;DHT22;13988;52.446;13.280;2023-04-03T07:08:57;2.70;99.90
26262;DHT22;13988;52.446;13.280;2023-04-03T07:11:23;2.90;99.90
26262;DHT22;13988;52.446;13.280;2023-04-03T07:13:50;3.30;99.90
26262;DHT22;13988;52.446;13.280;2023-04-03T07:16:16;3.40;99.90
26262;DHT22;13988;52.446;13.280;2023-04-03T07:18:42;3.40;99.90
26262;DHT22;13988;52.446;13.280;2023-04-03T07:21:07;3.40;99.90
26262;DHT22;13988;52.446;13.280;2023-04-03T07:23:33;3.20;99.90
26262;DHT22;13988;52.446;13.280;2023-04-03T07:25:59;3.00;99.90
26262;DHT22;13988;52.446;13.280;2023-04-03T07:28:24;3.50;99.90
26262;DHT22;13988;52.446;13.280;2023-04-03T07:30:53;3.30;99.90
26262;DHT22;13988;52.446;13.280;2023-04-03T07:33:21;3.70;99.90
26262;DHT22;13988;52.446;13.280;2023-04-03T07:35:48;3.70;99.90
26262;DHT22;13988;52.446;13.280;2023-04-03T07:38:14;3.60;99.90
26262;DHT22;13988;52.446;13.280;2023-04-03T07:40:39;3.20;99.90
26262;DHT22;13988;52.446;13.280;2023-04-03T07:43:06;3.40;99.90
26262;DHT22;13988;52.446;13.280;2023-04-03T07:45:34;3.20;99.90
26262;DHT22;13988;52.446;13.280;2023-04-03T07:48:00;3.30;99.90
26262;DHT22;13988;52.446;13.280;2023-04-03T07:50:26;3.50;99.90
26262;DHT22;13988;52.446;13.280;2023-04-03T07:52:52;4.00;99.90
26262;DHT22;13988;52.446;13.280;2023-04-03T07:55:20;3.50;99.90
26262;DHT22;13988;52.446;13.280;2023-04-03T07:57:45;3.40;99.90
26262;DHT22;13988;52.446;13.280;2023-04-03T08:00:12;3.40;99.90
26262;DHT22;13988;52.446;13.280;2023-04-03T08:02:38;3.50;99.90
26262;DHT22;13988;52.446;13.280;2023-04-03T08:05:04;3.40;99.90
26262;DHT22;13988;52.446;13.280;2023-04-03T08:07:29;3.10;99.90
26262;DHT22;13988;52.446;13.280;2023-04-03T08:09:55;3.30;99.90
26262;DHT22;13988;52.446;13.280;2023-04-03T08:12:21;3.40;99.90
26262;DHT22;13988;52.446;13.280;2023-04-03T08:14:47;3.30;99.90
26262;DHT22;13988;52.446;13.280;2023-04-03T08:17:12;4.20;99.90
26262;DHT22;13988;52.446;13.280;2023-04-03T08:19:39;4.40;99.90
26262;DHT22;13988;52.446;13.280;2023-04-03T08:22:05;4.20;99.90
26262;DHT22;13988;52.446;13.280;2023-04-03T08:24:32;4.10;99.90
26262;DHT22;13988;52.446;13.280;2023-04-03T08:26:58;3.40;99.90
26262;DHT22;13988;52.446;13.280;2023-04-03T08:29:24;3.70;99.90
26262;DHT22;13988;52.446;13.280;2023-04-03T08:31:50;3.80;99.90
26262;DHT22;13988;52.446;13.280;2023-04-03T08:34:16;3.50;99.90
26262;DHT22;13988;52.446;13.280;2023-04-03T08:36:43;3.30;99.90
26262;DHT22;13988;52.446;13.280;2023-04-03T08:39:09;3.40;99.90
26262;DHT22;13988;52.446;13.280;2023-04-03T08:41:37;3.10;99.90
26262;DHT22;13988;52.446;13.280;2023-04-03T08:52:10;3.40;99.90
26262;DHT22;13988;52.446;13.280;2023-04-03T08:54:58;4.10;99.90
26262;DHT22;13988;52.446;13.280;2023-04-03T08:57:39;4.20;99.90
26262;DHT22;13988;52.446;13.280;2023-04-03T09:05:20;3.90;99.90
26262;DHT22;13988;52.446;13.280;2023-04-03T09:10:39;3.50;99.90
26262;DHT22;13988;52.446;13.280;2023-04-03T09:15:40;3.60;99.90
26262;DHT22;13988;52.446;13.280;2023-04-03T09:23:32;4.00;99.90
26262;DHT22;13988;52.446;13.280;2023-04-03T09:26:13;4.40;99.90
26262;DHT22;13988;52.446;13.280;2023-04-03T09:28:41;4.70;99.90
26262;DHT22;13988;52.446;13.280;2023-04-03T09:31:29;4.30;99.70
26262;DHT22;13988;52.446;13.280;2023-04-03T09:34:02;4.00;98.50
26262;DHT22;13988;52.446;13.280;2023-04-03T09:37:02;4.10;98.90
26262;DHT22;13988;52.446;13.280;2023-04-03T09:39:32;3.90;98.70
26262;DHT22;13988;52.446;13.280;2023-04-03T09:42:20;3.80;98.60
26262;DHT22;13988;52.446;13.280;2023-04-03T09:44:59;3.70;97.90
26262;DHT22;13988;52.446;13.280;2023-04-03T09:47:34;3.90;99.10
26262;DHT22;13988;52.446;13.280;2023-04-03T09:52:44;4.70;98.30
26262;DHT22;13988;52.446;13.280;2023-04-03T09:55:18;4.90;96.30
26262;DHT22;13988;52.446;13.280;2023-04-03T09:57:45;5.00;95.30
26262;DHT22;13988;52.446;13.280;2023-04-03T10:00:26;5.20;96.90
26262;DHT22;13988;52.446;13.280;2023-04-03T10:02:56;4.50;95.30
26262;DHT22;13988;52.446;13.280;2023-04-03T10:05:34;4.40;96.00
26262;DHT22;13988;52.446;13.280;2023-04-03T10:08:36;4.50;95.70
26262;DHT22;13988;52.446;13.280;2023-04-03T10:11:20;4.20;94.70
26262;DHT22;13988;52.446;13.280;2023-04-03T10:16:32;4.40;95.40
26262;DHT22;13988;52.446;13.280;2023-04-03T10:22:37;5.00;95.70
26262;DHT22;13988;52.446;13.280;2023-04-03T10:27:37;5.50;95.00
26262;DHT22;13988;52.446;13.280;2023-04-03T10:33:24;5.40;94.50
26262;DHT22;13988;52.446;13.280;2023-04-03T10:41:17;5.10;92.80
26262;DHT22;13988;52.446;13.280;2023-04-03T10:46:49;5.00;92.90
26262;DHT22;13988;52.446;13.280;2023-04-03T10:55:46;5.00;90.90
26262;DHT22;13988;52.446;13.280;2023-04-03T10:57:50;5.20;90.40
26262;DHT22;13988;52.446;13.280;2023-04-03T11:00:21;6.00;92.80
26262;DHT22;13988;52.446;13.280;2023-04-03T11:03:00;5.90;90.60
26262;DHT22;13988;52.446;13.280;2023-04-03T11:05:47;5.70;91.10
26262;DHT22;13988;52.446;13.280;2023-04-03T11:08:28;5.70;90.40
26262;DHT22;13988;52.446;13.280;2023-04-03T11:11:03;6.00;91.40
26262;DHT22;13988;52.446;13.280;2023-04-03T11:16:08;5.50;90.50
26262;DHT22;13988;52.446;13.280;2023-04-03T11:18:44;6.00;90.60
26262;DHT22;13988;52.446;13.280;2023-04-03T11:21:21;5.80;90.20
26262;DHT22;13988;52.446;13.280;2023-04-03T11:23:48;6.10;92.00
26262;DHT22;13988;52.446;13.280;2023-04-03T11:26:20;5.70;90.70
26262;DHT22;13988;52.446;13.280;2023-04-03T11:28:53;6.00;90.70
26262;DHT22;13988;52.446;13.280;2023-04-03T11:34:36;5.70;90.30
26262;DHT22;13988;52.446;13.280;2023-04-03T11:37:42;5.30;89.20
26262;DHT22;13988;52.446;13.280;2023-04-03T11:40:22;5.50;90.60
26262;DHT22;13988;52.446;13.280;2023-04-03T11:42:54;5.60;91.00
26262;DHT22;13988;52.446;13.280;2023-04-03T11:47:55;5.20;90.20
26262;DHT22;13988;52.446;13.280;2023-04-03T11:52:59;5.30;91.30
26262;DHT22;13988;52.446;13.280;2023-04-03T12:19:37;5.10;92.80
26262;DHT22;13988;52.446;13.280;2023-04-03T12:22:08;5.10;92.40
26262;DHT22;13988;52.446;13.280;2023-04-03T12:24:44;5.30;93.20
26262;DHT22;13988;52.446;13.280;2023-04-03T12:27:33;5.10;93.40
26262;DHT22;13988;52.446;13.280;2023-04-03T12:32:49;5.10;94.30
26262;DHT22;13988;52.446;13.280;2023-04-03T12:44:15;4.90;93.30
26262;DHT22;13988;52.446;13.280;2023-04-03T12:46:48;5.00;94.40
26262;DHT22;13988;52.446;13.280;2023-04-03T12:49:33;4.80;93.40
26262;DHT22;13988;52.446;13.280;2023-04-03T12:52:04;4.90;93.90
26262;DHT22;13988;52.446;13.280;2023-04-03T12:54:40;4.80;93.60
26262;DHT22;13988;52.446;13.280;2023-04-03T12:59:36;5.40;94.50
26262;DHT22;13988;52.446;13.280;2023-04-03T13:02:15;5.10;91.90
26262;DHT22;13988;52.446;13.280;2023-04-03T13:04:43;5.00;91.70
26262;DHT22;13988;52.446;13.280;2023-04-03T13:07:27;5.00;91.30
26262;DHT22;13988;52.446;13.280;2023-04-03T13:10:17;5.10;92.20
26262;DHT22;13988;52.446;13.280;2023-04-03T13:13:07;5.20;90.00
26262;DHT22;13988;52.446;13.280;2023-04-03T13:15:45;5.20;90.30
26262;DHT22;13988;52.446;13.280;2023-04-03T13:18:32;5.40;91.20
26262;DHT22;13988;52.446;13.280;2023-04-03T13:21:23;5.40;90.80
26262;DHT22;13988;52.446;13.280;2023-04-03T13:23:49;5.20;90.60
26262;DHT22;13988;52.446;13.280;2023-04-03T13:26:17;4.90;90.90
26262;DHT22;13988;52.446;13.280;2023-04-03T13:28:44;5.30;92.00
26262;DHT22;13988;52.446;13.280;2023-04-03T13:34:13;5.20;91.80
26262;DHT22;13988;52.446;13.280;2023-04-03T13:37:00;5.10;92.70
26262;DHT22;13988;52.446;13.280;2023-04-03T13:39:31;5.00;93.10
26262;DHT22;13988;52.446;13.280;2023-04-03T13:41:59;5.00;93.70
26262;DHT22;13988;52.446;13.280;2023-04-03T13:44:37;4.90;93.70
26262;DHT22;13988;52.446;13.280;2023-04-03T13:47:15;4.90;94.30
26262;DHT22;13988;52.446;13.280;2023-04-03T13:50:03;4.80;95.10
26262;DHT22;13988;52.446;13.280;2023-04-03T13:52:39;4.70;95.00
26262;DHT22;13988;52.446;13.280;2023-04-03T13:58:01;4.70;94.00
26262;DHT22;13988;52.446;13.280;2023-04-03T14:03:24;5.00;94.00
26262;DHT22;13988;52.446;13.280;2023-04-03T14:05:51;5.20;94.80
26262;DHT22;13988;52.446;13.280;2023-04-03T14:08:17;5.10;93.20
26262;DHT22;13988;52.446;13.280;2023-04-03T14:10:43;5.10;93.70
26262;DHT22;13988;52.446;13.280;2023-04-03T14:13:14;5.30;93.30
26262;DHT22;13988;52.446;13.280;2023-04-03T14:15:40;5.00;94.80
26262;DHT22;13988;52.446;13.280;2023-04-03T14:18:09;5.10;92.80
26262;DHT22;13988;52.446;13.280;2023-04-03T14:20:35;4.90;93.50
26262;DHT22;13988;52.446;13.280;2023-04-03T14:23:01;4.70;93.60
26262;DHT22;13988;52.446;13.280;2023-04-03T14:25:26;4.90;94.50
26262;DHT22;13988;52.446;13.280;2023-04-03T14:27:53;5.10;95.00
26262;DHT22;13988;52.446;13.280;2023-04-03T14:30:31;5.00;94.10
26262;DHT22;13988;52.446;13.280;2023-04-03T14:32:58;5.00;94.30
26262;DHT22;13988;52.446;13.280;2023-04-03T14:35:24;5.20;95.20
26262;DHT22;13988;52.446;13.280;2023-04-03T14:37:52;5.20;94.80
26262;DHT22;13988;52.446;13.280;2023-04-03T14:40:25;5.20;94.50
26262;DHT22;13988;52.446;13.280;2023-04-03T14:42:51;5.00;94.30
26262;DHT22;13988;52.446;13.280;2023-04-03T14:45:20;5.00;93.70
26262;DHT22;13988;52.446;13.280;2023-04-03T14:47:52;5.00;94.20
26262;DHT22;13988;52.446;13.280;2023-04-03T14:50:24;4.70;92.50
26262;DHT22;13988;52.446;13.280;2023-04-03T14:52:52;4.80;92.60
26262;DHT22;13988;52.446;13.280;2023-04-03T14:55:20;5.00;93.20
26262;DHT22;13988;52.446;13.280;2023-04-03T14:57:48;5.20;92.50
26262;DHT22;13988;52.446;13.280;2023-04-03T15:00:16;5.50;93.40
26262;DHT22;13988;52.446;13.280;2023-04-03T15:02:42;5.30;91.70
26262;DHT22;13988;52.446;13.280;2023-04-03T15:05:10;5.10;92.60
26262;DHT22;13988;52.446;13.280;2023-04-03T15:07:38;5.10;93.30
26262;DHT22;13988;52.446;13.280;2023-04-03T15:10:23;5.20;93.70
26262;DHT22;13988;52.446;13.280;2023-04-03T15:12:51;5.00;94.20
26262;DHT22;13988;52.446;13.280;2023-04-03T15:15:18;5.00;95.10
26262;DHT22;13988;52.446;13.280;2023-04-03T15:17:47;5.10;94.90
26262;DHT22;13988;52.446;13.280;2023-04-03T15:20:18;4.90;95.30
26262;DHT22;13988;52.446;13.280;2023-04-03T15:22:45;4.90;96.30
26262;DHT22;13988;52.446;13.280;2023-04-03T15:25:11;4.60;95.60
26262;DHT22;13988;52.446;13.280;2023-04-03T15:27:37;4.70;96.20
26262;DHT22;13988;52.446;13.280;2023-04-03T15:30:05;4.80;97.30
26262;DHT22;13988;52.446;13.280;2023-04-03T15:32:31;4.60;97.30
26262;DHT22;13988;52.446;13.280;2023-04-03T15:34:59;4.70;98.30
26262;DHT22;13988;52.446;13.280;2023-04-03T15:37:25;4.60;99.00
26262;DHT22;13988;52.446;13.280;2023-04-03T15:39:50;4.50;98.80
26262;DHT22;13988;52.446;13.280;2023-04-03T15:42:16;4.40;99.40
26262;DHT22;13988;52.446;13.280;2023-04-03T15:44:41;4.50;99.90
26262;DHT22;13988;52.446;13.280;2023-04-03T15:47:07;4.40;99.30
26262;DHT22;13988;52.446;13.280;2023-04-03T15:49:33;4.40;99.40
26262;DHT22;13988;52.446;13.280;2023-04-03T15:51:59;4.40;99.90
26262;DHT22;13988;52.446;13.280;2023-04-03T15:54:26;4.50;99.90
26262;DHT22;13988;52.446;13.280;2023-04-03T15:56:53;4.30;99.90
26262;DHT22;13988;52.446;13.280;2023-04-03T15:59:19;4.40;99.90
26262;DHT22;13988;52.446;13.280;2023-04-03T16:01:45;4.30;99.90
26262;DHT22;13988;52.446;13.280;2023-04-03T16:04:11;4.30;99.90
26262;DHT22;13988;52.446;13.280;2023-04-03T16:06:37;4.40;99.90
26262;DHT22;13988;52.446;13.280;2023-04-03T16:09:03;4.30;99.90
26262;DHT22;13988;52.446;13.280;2023-04-03T16:11:30;4.30;99.90
26262;DHT22;13988;52.446;13.280;2023-04-03T16:13:55;4.40;99.90
26262;DHT22;13988;52.446;13.280;2023-04-03T16:16:22;4.30;99.90
26262;DHT22;13988;52.446;13.280;2023-04-03T16:18:48;4.30;99.90
26262;DHT22;13988;52.446;13.280;2023-04-03T16:21:15;4.30;99.90
26262;DHT22;13988;52.446;13.280;2023-04-03T16:23:41;4.20;99.90
26262;DHT22;13988;52.446;13.280;2023-04-03T16:26:07;4.20;99.90
26262;DHT22;13988;52.446;13.280;2023-04-03T16:28:33;4.10;99.90
26262;DHT22;13988;52.446;13.280;2023-04-03T16:31:00;4.10;99.90
26262;DHT22;13988;52.446;13.280;2023-04-03T16:33:26;4.10;99.90
26262;DHT22;13988;52.446;13.280;2023-04-03T16:35:52;4.00;99.90
26262;DHT22;13988;52.446;13.280;2023-04-03T16:38:18;4.00;99.90
26262;DHT22;13988;52.446;13.280;2023-04-03T16:40:47;4.00;99.90
26262;DHT22;13988;52.446;13.280;2023-04-03T16:43:14;4.00;99.90
26262;DHT22;13988;52.446;13.280;2023-04-03T16:45:40;4.10;99.90
26262;DHT22;13988;52.446;13.280;2023-04-03T16:48:06;4.20;99.90
26262;DHT22;13988;52.446;13.280;2023-04-03T16:50:31;4.20;99.90
26262;DHT22;13988;52.446;13.280;2023-04-03T16:52:57;4.40;99.90
26262;DHT22;13988;52.446;13.280;2023-04-03T16:55:23;4.30;99.90
26262;DHT22;13988;52.446;13.280;2023-04-03T16:57:48;4.40;99.90
26262;DHT22;13988;52.446;13.280;2023-04-03T17:00:15;4.50;99.90
26262;DHT22;13988;52.446;13.280;2023-04-03T17:02:41;4.50;99.90
26262;DHT22;13988;52.446;13.280;2023-04-03T17:05:07;4.40;99.90
26262;DHT22;13988;52.446;13.280;2023-04-03T17:07:32;4.30;99.90
26262;DHT22;13988;52.446;13.280;2023-04-03T17:09:58;4.20;99.90
26262;DHT22;13988;52.446;13.280;2023-04-03T17:12:24;4.20;99.90
26262;DHT22;13988;52.446;13.280;2023-04-03T17:14:50;4.20;99.90
26262;DHT22;13988;52.446;13.280;2023-04-03T17:17:19;4.10;99.90
26262;DHT22;13988;52.446;13.280;2023-04-03T17:19:46;4.10;99.90
26262;DHT22;13988;52.446;13.280;2023-04-03T17:22:12;4.10;99.90
26262;DHT22;13988;52.446;13.280;2023-04-03T17:24:38;4.10;99.90
26262;DHT22;13988;52.446;13.280;2023-04-03T17:27:03;4.10;99.90
26262;DHT22;13988;52.446;13.280;2023-04-03T17:29:29;4.10;99.90
26262;DHT22;13988;52.446;13.280;2023-04-03T17:31:55;4.10;99.90